Time;durP1;ratioP1;P1;durP2;ratioP2;P2;SDS_P1;SDS_P2;PMS_P1;PMS_P2;Temp;Humidity;BMP_temperature;BMP_pressure;BME280_temperature;BME280_humidity;BME280_pressure;Samples;Min_cycle;Max_cycle;Signal;HPM_P1;HPM_P2
2023/05/16 00:00:05;;;;;;;14.45;1.60;;;10.00;99.90;;;;;;4977533;28;20026;-88
2023/05/16 00:02:31;;;;;;;14.75;1.42;;;10.00;99.90;;;;;;4963093;28;20018;-88
2023/05/16 00:04:56;;;;;;;8.02;1.30;;;9.90;99.90;;;;;;4974476;28;20101;-88
2023/05/16 00:07:22;;;;;;;9.45;1.20;;;9.90;99.90;;;;;;4964051;28;20033;-89
2023/05/16 00:09:48;;;;;;;9.05;1.13;;;9.90;99.90;;;;;;4977234;28;20034;-88
2023/05/16 00:12:13;;;;;;;10.45;0.90;;;9.80;99.90;;;;;;4961283;28;20470;-88
2023/05/16 00:14:39;;;;;;;17.30;1.20;;;9.80;99.90;;;;;;4967377;28;20061;-88
2023/05/16 00:17:10;;;;;;;9.63;1.00;;;9.80;99.90;;;;;;4975845;28;20026;-88
2023/05/16 00:19:38;;;;;;;16.30;1.58;;;9.70;99.90;;;;;;4975075;28;20023;-88
2023/05/16 00:22:04;;;;;;;11.93;1.52;;;9.70;99.90;;;;;;4969006;28;20117;-88
2023/05/16 00:24:30;;;;;;;10.82;1.17;;;9.70;99.90;;;;;;4977611;28;20033;-88
2023/05/16 00:26:55;;;;;;;11.43;1.50;;;9.70;99.90;;;;;;4968711;28;20030;-88
2023/05/16 00:29:23;;;;;;;9.30;0.98;;;9.60;99.90;;;;;;4981206;28;20038;-88
2023/05/16 00:31:49;;;;;;;13.90;1.50;;;9.50;99.90;;;;;;4981746;28;20026;-88
2023/05/16 00:34:14;;;;;;;6.90;1.02;;;9.50;99.90;;;;;;4978157;28;20026;-88
2023/05/16 00:36:40;;;;;;;13.82;1.05;;;9.50;99.90;;;;;;4981105;28;20057;-88
2023/05/16 00:39:05;;;;;;;14.07;0.98;;;9.50;99.90;;;;;;4963243;28;20059;-89
2023/05/16 00:41:33;;;;;;;12.05;1.52;;;9.50;99.90;;;;;;4980594;28;20468;-88
2023/05/16 00:43:58;;;;;;;17.80;1.65;;;9.50;99.90;;;;;;4973956;28;20042;-88
2023/05/16 00:46:24;;;;;;;11.48;1.15;;;9.40;99.90;;;;;;4972785;28;20038;-88
2023/05/16 00:48:50;;;;;;;11.25;0.90;;;9.40;99.90;;;;;;4995623;28;20073;-88
2023/05/16 00:51:16;;;;;;;14.15;1.15;;;9.40;99.90;;;;;;4969518;28;20038;-88
2023/05/16 00:53:42;;;;;;;10.65;1.00;;;9.30;99.90;;;;;;4973466;28;20026;-88
2023/05/16 00:56:08;;;;;;;13.93;1.45;;;9.30;99.90;;;;;;4979029;28;20117;-88
2023/05/16 00:58:34;;;;;;;14.25;0.95;;;9.20;99.90;;;;;;4980791;28;20019;-88
2023/05/16 01:01:02;;;;;;;18.80;1.30;;;9.20;99.90;;;;;;4978608;28;20077;-88
2023/05/16 01:03:28;;;;;;;14.07;1.20;;;9.20;99.90;;;;;;4981131;28;20038;-88
2023/05/16 01:05:54;;;;;;;14.20;0.93;;;9.20;99.90;;;;;;4977672;28;20023;-88
2023/05/16 01:08:20;;;;;;;15.57;1.05;;;9.20;99.90;;;;;;4979921;28;20046;-88
2023/05/16 01:11:08;;;;;;;9.35;1.25;;;9.20;99.90;;;;;;4973451;28;20027;-88
2023/05/16 01:14:06;;;;;;;15.32;1.45;;;9.10;99.90;;;;;;4973629;28;20031;-89
2023/05/16 01:16:47;;;;;;;13.18;1.25;;;9.10;99.90;;;;;;4964815;28;20080;-88
2023/05/16 01:19:27;;;;;;;11.43;1.00;;;8.90;99.90;;;;;;4983917;28;20376;-88
2023/05/16 01:22:14;;;;;;;11.30;1.17;;;8.90;99.90;;;;;;4982101;28;20026;-88
2023/05/16 01:24:54;;;;;;;12.38;1.25;;;8.80;99.90;;;;;;4961953;28;20077;-88
2023/05/16 01:27:22;;;;;;;12.30;0.80;;;8.80;99.90;;;;;;4979019;28;20057;-88
2023/05/16 01:29:48;;;;;;;9.52;0.90;;;8.70;99.90;;;;;;4964069;28;20635;-88
2023/05/16 01:32:13;;;;;;;17.20;1.00;;;8.70;99.90;;;;;;4979806;28;20082;-89
2023/05/16 01:34:41;;;;;;;8.52;0.70;;;8.60;99.90;;;;;;4980561;28;20027;-88
2023/05/16 01:37:34;;;;;;;12.95;1.00;;;8.60;99.90;;;;;;4963676;28;20031;-88
2023/05/16 01:40:06;;;;;;;;;;;8.50;99.90;;;;;;4978375;28;20113;-88
2023/05/16 01:42:36;;;;;;;9.93;1.03;;;8.40;99.90;;;;;;4972278;28;19906;-88
2023/05/16 01:45:11;;;;;;;13.30;1.13;;;8.30;99.90;;;;;;4977656;28;20126;-88
2023/05/16 01:47:41;;;;;;;11.65;0.68;;;8.30;99.90;;;;;;4973616;28;20046;-88
2023/05/16 01:50:13;;;;;;;14.13;1.17;;;8.20;99.90;;;;;;4977722;28;20046;-88
2023/05/16 01:52:55;;;;;;;13.00;0.90;;;8.20;99.90;;;;;;4972155;28;20376;-88
2023/05/16 01:55:42;;;;;;;13.32;1.10;;;8.10;99.90;;;;;;4977028;28;20086;-88
2023/05/16 01:58:10;;;;;;;16.05;1.30;;;8.10;99.90;;;;;;4976443;28;20030;-88
2023/05/16 02:00:35;;;;;;;14.50;1.30;;;8.00;99.90;;;;;;4976768;28;20025;-88
2023/05/16 02:03:01;;;;;;;11.57;0.95;;;8.00;99.90;;;;;;4974456;28;20026;-88
2023/05/16 02:05:27;;;;;;;15.05;1.15;;;7.90;99.90;;;;;;4961625;28;20032;-88
2023/05/16 02:07:52;;;;;;;12.57;0.77;;;7.90;99.90;;;;;;4962212;28;20139;-88
2023/05/16 02:10:19;;;;;;;13.02;1.48;;;7.90;99.90;;;;;;4976246;28;20046;-88
2023/05/16 02:12:44;;;;;;;17.83;1.17;;;7.90;99.90;;;;;;4975734;28;20034;-88
2023/05/16 02:15:10;;;;;;;14.75;1.08;;;7.90;99.90;;;;;;4972669;28;20495;-88
2023/05/16 02:17:36;;;;;;;10.43;0.98;;;7.90;99.90;;;;;;4967762;28;20027;-88
2023/05/16 02:20:05;;;;;;;12.45;1.23;;;7.90;99.90;;;;;;4976887;28;20468;-88
2023/05/16 02:22:32;;;;;;;14.85;1.23;;;7.90;99.90;;;;;;4973121;28;20031;-88
2023/05/16 02:24:59;;;;;;;11.32;0.80;;;7.90;99.90;;;;;;4975673;28;20031;-88
2023/05/16 02:27:25;;;;;;;17.13;1.05;;;7.90;99.90;;;;;;4976330;28;20058;-88
2023/05/16 02:29:50;;;;;;;11.57;0.70;;;7.90;99.90;;;;;;4971949;28;20035;-88
2023/05/16 02:32:16;;;;;;;12.88;1.30;;;7.80;99.90;;;;;;4971902;28;20046;-88
2023/05/16 02:34:41;;;;;;;9.23;1.10;;;7.80;99.90;;;;;;4961780;28;20031;-88
2023/05/16 02:37:07;;;;;;;10.57;0.88;;;7.80;99.90;;;;;;4959549;28;20015;-88
2023/05/16 02:39:33;;;;;;;12.63;0.80;;;7.80;99.90;;;;;;4972596;28;20459;-88
2023/05/16 02:41:58;;;;;;;14.00;1.15;;;7.80;99.90;;;;;;4959732;28;20455;-88
2023/05/16 02:44:24;;;;;;;10.50;0.85;;;7.90;99.90;;;;;;4980466;28;20112;-88
2023/05/16 02:46:50;;;;;;;11.82;0.85;;;8.00;99.90;;;;;;4978278;28;20026;-88
2023/05/16 02:49:15;;;;;;;10.40;0.90;;;8.00;99.90;;;;;;4973304;28;20049;-88
2023/05/16 02:51:41;;;;;;;10.27;1.08;;;8.00;99.90;;;;;;4995097;28;20028;-88
2023/05/16 02:54:08;;;;;;;14.10;0.80;;;8.00;99.90;;;;;;4972932;28;20038;-88
2023/05/16 02:56:34;;;;;;;21.33;2.15;;;8.10;99.90;;;;;;4974820;28;20030;-88
2023/05/16 02:59:00;;;;;;;13.93;0.95;;;8.00;99.90;;;;;;4970573;28;20033;-88
2023/05/16 03:01:26;;;;;;;7.22;0.60;;;8.10;99.90;;;;;;4973196;28;20117;-88
2023/05/16 03:03:51;;;;;;;15.73;1.02;;;8.00;99.90;;;;;;4975436;28;20039;-88
2023/05/16 03:06:17;;;;;;;9.43;1.05;;;8.00;99.90;;;;;;4976127;28;20547;-88
2023/05/16 03:08:42;;;;;;;8.30;1.10;;;8.00;99.90;;;;;;4975030;28;20522;-88
2023/05/16 03:11:08;;;;;;;12.60;1.35;;;8.00;99.90;;;;;;4976055;28;20035;-88
2023/05/16 03:13:33;;;;;;;8.98;1.05;;;7.90;99.90;;;;;;4963941;28;20033;-88
2023/05/16 03:15:59;;;;;;;12.38;0.65;;;7.90;99.90;;;;;;4971950;28;20023;-86
2023/05/16 03:18:25;;;;;;;10.82;0.88;;;7.80;99.90;;;;;;4969127;28;20557;-87
2023/05/16 03:20:56;;;;;;;6.97;0.60;;;7.80;99.90;;;;;;4974389;28;20122;-87
2023/05/16 03:23:22;;;;;;;12.77;1.00;;;7.70;99.90;;;;;;4961143;28;20509;-87
2023/05/16 03:25:47;;;;;;;10.50;0.85;;;7.70;99.90;;;;;;4974749;28;20109;-87
2023/05/16 03:28:13;;;;;;;11.65;0.77;;;7.50;99.90;;;;;;4978376;28;20045;-86
2023/05/16 03:30:40;;;;;;;11.25;1.23;;;7.50;99.90;;;;;;4973373;28;20022;-86
2023/05/16 03:33:06;;;;;;;11.93;0.70;;;7.50;99.90;;;;;;4963710;28;20255;-87
2023/05/16 03:35:33;;;;;;;16.77;1.40;;;7.50;99.90;;;;;;4972258;28;20053;-87
2023/05/16 03:37:59;;;;;;;8.70;0.60;;;7.50;99.90;;;;;;4959260;28;20107;-87
2023/05/16 03:40:24;;;;;;;12.13;1.60;;;7.40;99.90;;;;;;4978341;28;20069;-87
2023/05/16 03:42:50;;;;;;;10.05;1.17;;;7.40;99.90;;;;;;4974630;28;20029;-86
2023/05/16 03:45:16;;;;;;;11.63;0.68;;;7.30;99.90;;;;;;4976053;28;20046;-87
2023/05/16 03:47:41;;;;;;;15.98;1.17;;;7.30;99.90;;;;;;4978024;28;20034;-87
2023/05/16 03:50:08;;;;;;;15.63;1.30;;;7.20;99.90;;;;;;4964393;28;21261;-87
2023/05/16 03:52:34;;;;;;;9.65;1.05;;;7.20;99.90;;;;;;4973629;28;20026;-87
2023/05/16 03:55:03;;;;;;;10.30;0.95;;;7.20;99.90;;;;;;4972392;28;20039;-86
2023/05/16 03:57:31;;;;;;;10.10;1.17;;;7.10;99.90;;;;;;4976774;28;20090;-87
2023/05/16 03:59:56;;;;;;;10.60;1.23;;;7.10;99.90;;;;;;4965744;28;20093;-87
2023/05/16 04:02:22;;;;;;;11.70;1.05;;;7.10;99.90;;;;;;4973284;28;20035;-87
2023/05/16 04:04:47;;;;;;;12.68;1.20;;;7.00;99.90;;;;;;4981855;28;20201;-88
2023/05/16 04:07:13;;;;;;;16.33;1.27;;;7.00;99.90;;;;;;4984655;28;20117;-87
2023/05/16 04:09:39;;;;;;;13.57;0.77;;;7.00;99.90;;;;;;4967973;28;20089;-87
2023/05/16 04:12:05;;;;;;;12.65;1.02;;;7.00;99.90;;;;;;4973416;28;20050;-88
2023/05/16 04:14:31;;;;;;;13.85;0.80;;;7.00;99.90;;;;;;4972896;28;20035;-87
2023/05/16 04:16:56;;;;;;;12.00;1.13;;;7.00;99.90;;;;;;4972375;28;20113;-87
2023/05/16 04:19:22;;;;;;;9.68;0.95;;;7.00;99.90;;;;;;4975547;28;20041;-88
2023/05/16 04:21:48;;;;;;;17.00;1.00;;;7.00;99.90;;;;;;4969565;28;20034;-88
2023/05/16 04:24:13;;;;;;;13.65;1.23;;;7.00;99.90;;;;;;4979972;28;20035;-88
2023/05/16 04:26:39;;;;;;;16.23;1.00;;;7.00;99.90;;;;;;4993225;28;20153;-88
2023/05/16 04:29:04;;;;;;;10.57;0.95;;;7.00;99.90;;;;;;4997297;28;20150;-87
2023/05/16 04:31:30;;;;;;;10.02;1.50;;;7.10;99.90;;;;;;4979431;28;20446;-87
2023/05/16 04:33:56;;;;;;;10.65;0.73;;;7.10;99.90;;;;;;4969911;28;20030;-88
2023/05/16 04:36:22;;;;;;;15.75;1.80;;;7.10;99.90;;;;;;4977806;28;20030;-88
2023/05/16 04:38:48;;;;;;;16.02;1.55;;;7.10;99.90;;;;;;4978413;28;20081;-86
2023/05/16 04:41:14;;;;;;;14.32;1.52;;;7.20;99.90;;;;;;4977308;28;20487;-87
2023/05/16 04:43:40;;;;;;;13.55;0.95;;;7.20;99.90;;;;;;4976801;28;20046;-87
2023/05/16 04:46:06;;;;;;;11.73;1.42;;;7.30;99.90;;;;;;4978677;28;20080;-86
2023/05/16 04:48:32;;;;;;;14.52;0.85;;;7.30;99.90;;;;;;4996291;28;20034;-87
2023/05/16 04:50:58;;;;;;;9.45;0.63;;;7.40;99.90;;;;;;4992151;28;20018;-87
2023/05/16 04:53:24;;;;;;;13.18;1.35;;;7.50;99.90;;;;;;4978456;28;20038;-86
2023/05/16 04:55:49;;;;;;;12.63;0.88;;;7.60;99.90;;;;;;4975908;28;20022;-87
2023/05/16 04:58:15;;;;;;;14.20;1.05;;;7.60;99.90;;;;;;4991282;28;20038;-87
2023/05/16 05:00:41;;;;;;;8.73;0.75;;;7.70;99.90;;;;;;4978009;28;20038;-87
2023/05/16 05:03:07;;;;;;;9.48;0.82;;;7.70;99.90;;;;;;4995733;28;20033;-87
2023/05/16 05:05:32;;;;;;;11.82;0.98;;;7.80;99.90;;;;;;4966539;28;20035;-87
2023/05/16 05:07:59;;;;;;;9.32;1.08;;;7.80;99.90;;;;;;4975341;28;20467;-87
2023/05/16 05:10:26;;;;;;;8.00;0.85;;;7.90;99.90;;;;;;4962405;28;20027;-87
2023/05/16 05:12:52;;;;;;;14.00;0.70;;;8.00;99.90;;;;;;4975554;28;20081;-87
2023/05/16 05:15:18;;;;;;;8.80;0.80;;;8.10;99.90;;;;;;4973495;28;20027;-87
2023/05/16 05:17:43;;;;;;;12.25;1.00;;;8.20;99.90;;;;;;4973338;28;20022;-88
2023/05/16 05:20:10;;;;;;;8.60;0.50;;;8.40;99.90;;;;;;4972520;28;20498;-88
2023/05/16 05:22:36;;;;;;;10.43;0.60;;;8.70;99.90;;;;;;4974799;28;20033;-89
2023/05/16 05:25:01;;;;;;;10.43;0.70;;;9.00;99.90;;;;;;4959071;28;20475;-88
2023/05/16 05:27:27;;;;;;;4.60;0.43;;;9.30;99.90;;;;;;4959374;28;20039;-88
2023/05/16 05:29:53;;;;;;;10.48;0.90;;;9.60;99.90;;;;;;4972762;28;20423;-88
2023/05/16 05:32:18;;;;;;;8.25;1.27;;;9.80;99.90;;;;;;4974466;28;20030;-88
2023/05/16 05:34:44;;;;;;;14.32;1.08;;;10.00;99.90;;;;;;4976547;28;20026;-88
2023/05/16 05:37:10;;;;;;;9.90;0.60;;;10.00;99.90;;;;;;4974917;28;20181;-89
2023/05/16 05:39:36;;;;;;;6.63;0.50;;;10.00;99.90;;;;;;4979689;28;20026;-87
2023/05/16 05:42:02;;;;;;;13.15;0.60;;;10.00;99.90;;;;;;4970537;28;20025;-88
2023/05/16 05:44:28;;;;;;;7.93;0.57;;;10.00;99.90;;;;;;4972099;28;20050;-88
2023/05/16 05:46:56;;;;;;;12.05;0.70;;;9.90;99.90;;;;;;4975173;28;20117;-88
2023/05/16 05:49:22;;;;;;;8.38;0.80;;;9.90;99.90;;;;;;4975587;28;20044;-88
2023/05/16 05:51:50;;;;;;;9.45;0.70;;;9.90;99.90;;;;;;4995696;28;20019;-88
2023/05/16 05:54:19;;;;;;;9.70;0.80;;;9.90;99.90;;;;;;4976866;28;20147;-88
2023/05/16 05:56:45;;;;;;;12.68;1.00;;;9.90;99.90;;;;;;4977020;28;20026;-89
2023/05/16 05:59:11;;;;;;;6.93;0.63;;;9.90;99.90;;;;;;4977643;28;20474;-89
2023/05/16 06:01:36;;;;;;;7.22;0.73;;;9.90;99.90;;;;;;4976811;28;20034;-88
2023/05/16 06:04:02;;;;;;;7.88;0.50;;;9.90;99.90;;;;;;4977987;28;20100;-89
2023/05/16 06:06:28;;;;;;;5.72;0.57;;;10.00;99.90;;;;;;4972526;28;20026;-89
2023/05/16 06:08:54;;;;;;;15.50;0.77;;;10.10;99.90;;;;;;4988098;28;20097;-88
2023/05/16 06:11:20;;;;;;;13.75;0.95;;;10.20;99.90;;;;;;4976757;28;20056;-89
2023/05/16 06:13:46;;;;;;;19.95;1.45;;;10.30;99.90;;;;;;4976311;28;20034;-89
2023/05/16 06:16:11;;;;;;;7.80;0.75;;;10.40;99.90;;;;;;4968136;28;20081;-89
2023/05/16 06:18:37;;;;;;;6.35;0.40;;;10.50;99.90;;;;;;4976670;28;20019;-89
2023/05/16 06:21:03;;;;;;;6.65;0.50;;;10.60;99.90;;;;;;4986527;28;20034;-88
2023/05/16 06:23:30;;;;;;;15.40;1.02;;;10.60;99.90;;;;;;4977329;28;20109;-89
2023/05/16 06:25:55;;;;;;;7.97;0.88;;;10.60;99.90;;;;;;4957892;28;20078;-89
2023/05/16 06:28:21;;;;;;;9.82;1.02;;;10.70;99.90;;;;;;4972438;28;20054;-88
2023/05/16 06:30:46;;;;;;;9.82;0.77;;;10.70;99.90;;;;;;4966974;28;20038;-88
2023/05/16 06:33:13;;;;;;;7.03;0.60;;;10.80;99.90;;;;;;4975834;28;20030;-88
2023/05/16 06:35:39;;;;;;;8.10;0.60;;;10.80;99.90;;;;;;4975821;28;20106;-89
2023/05/16 06:38:05;;;;;;;7.22;0.60;;;10.90;99.90;;;;;;4976105;28;20121;-88
2023/05/16 06:40:30;;;;;;;10.50;0.57;;;11.00;99.90;;;;;;4974455;28;20365;-88
2023/05/16 06:42:57;;;;;;;9.52;0.65;;;11.00;99.90;;;;;;4973234;28;20073;-89
2023/05/16 06:45:23;;;;;;;5.93;0.40;;;11.00;99.90;;;;;;4976228;28;20042;-88
2023/05/16 06:47:48;;;;;;;9.00;1.13;;;11.10;99.90;;;;;;4976134;28;20473;-89
2023/05/16 06:50:14;;;;;;;14.40;0.77;;;11.20;99.90;;;;;;4976249;28;20034;-88
2023/05/16 06:52:40;;;;;;;7.57;0.60;;;11.20;99.90;;;;;;4975604;28;20026;-88
2023/05/16 06:55:06;;;;;;;9.68;1.33;;;11.30;99.90;;;;;;4976668;28;20030;-90
2023/05/16 06:57:32;;;;;;;6.55;0.60;;;11.20;99.90;;;;;;4975263;28;20121;-89
2023/05/16 06:59:57;;;;;;;9.40;0.50;;;11.30;99.90;;;;;;4974048;28;20022;-89
2023/05/16 07:02:23;;;;;;;7.72;0.80;;;11.40;99.90;;;;;;4976068;28;20394;-89
2023/05/16 07:04:48;;;;;;;8.13;0.80;;;11.50;99.90;;;;;;4977237;28;20050;-89
2023/05/16 07:07:14;;;;;;;8.00;0.52;;;11.40;99.90;;;;;;4973169;28;20027;-88
2023/05/16 07:09:40;;;;;;;7.50;1.05;;;11.40;99.90;;;;;;4980866;28;20498;-89
2023/05/16 07:12:06;;;;;;;9.98;0.40;;;11.50;99.90;;;;;;4968121;28;20099;-90
2023/05/16 07:14:32;;;;;;;9.10;0.60;;;11.60;99.90;;;;;;4987317;28;20487;-89
2023/05/16 07:17:06;;;;;;;3.25;0.30;;;11.60;99.90;;;;;;4978445;28;20102;-88
2023/05/16 07:19:32;;;;;;;7.22;0.45;;;11.60;99.90;;;;;;4973124;28;20039;-88
2023/05/16 07:21:57;;;;;;;6.10;0.45;;;11.50;99.90;;;;;;4972617;28;20057;-88
2023/05/16 07:24:26;;;;;;;5.28;0.50;;;11.60;99.90;;;;;;4972814;28;20031;-88
2023/05/16 07:26:52;;;;;;;7.65;0.40;;;11.80;99.90;;;;;;4975994;28;20113;-88
2023/05/16 07:29:17;;;;;;;8.43;0.57;;;11.90;99.90;;;;;;4975220;28;20144;-88
2023/05/16 07:31:46;;;;;;;5.38;0.20;;;12.10;99.90;;;;;;4976862;28;20026;-88
2023/05/16 07:34:11;;;;;;;6.60;0.57;;;12.10;99.90;;;;;;4971812;28;20037;-88
2023/05/16 07:36:38;;;;;;;9.32;0.95;;;12.10;99.90;;;;;;4975731;28;20022;-88
2023/05/16 07:39:27;;;;;;;5.55;0.30;;;12.10;99.90;;;;;;4976652;28;20113;-87
2023/05/16 07:41:56;;;;;;;3.53;0.40;;;12.20;99.90;;;;;;4993603;28;20034;-88
2023/05/16 07:44:21;;;;;;;7.47;0.40;;;12.30;99.90;;;;;;4973915;28;20137;-87
2023/05/16 07:46:47;;;;;;;3.88;0.30;;;12.40;99.90;;;;;;4976148;28;20061;-88
2023/05/16 07:49:13;;;;;;;5.93;0.25;;;12.50;99.90;;;;;;4973738;28;20039;-88
2023/05/16 07:51:39;;;;;;;5.28;0.60;;;12.60;99.90;;;;;;4973985;28;20252;-88
2023/05/16 07:54:04;;;;;;;4.85;0.40;;;12.60;99.90;;;;;;4973398;28;20113;-87
2023/05/16 07:56:30;;;;;;;5.00;0.57;;;12.40;99.90;;;;;;4974943;28;20018;-88
2023/05/16 07:58:55;;;;;;;4.15;0.30;;;12.20;99.90;;;;;;4971313;28;20043;-87
2023/05/16 08:01:21;;;;;;;5.53;0.30;;;12.00;99.90;;;;;;4974102;28;20086;-89
2023/05/16 08:03:47;;;;;;;2.55;0.40;;;11.90;99.90;;;;;;4974968;28;20033;-88
2023/05/16 08:06:13;;;;;;;5.93;0.30;;;12.00;99.90;;;;;;4975848;28;20049;-88
2023/05/16 08:08:39;;;;;;;6.32;0.30;;;12.20;99.90;;;;;;4963799;28;20031;-88
2023/05/16 08:11:04;;;;;;;7.88;0.40;;;12.40;99.90;;;;;;4958125;28;20038;-88
2023/05/16 08:13:30;;;;;;;5.47;0.30;;;12.70;99.90;;;;;;4976195;28;20030;-88
2023/05/16 08:15:56;;;;;;;3.83;0.20;;;12.90;99.90;;;;;;4959095;28;20018;-88
2023/05/16 08:18:21;;;;;;;9.75;0.30;;;13.00;99.90;;;;;;4975659;28;20038;-88
2023/05/16 08:20:47;;;;;;;5.70;0.30;;;13.00;99.90;;;;;;4975095;28;20026;-88
2023/05/16 08:23:13;;;;;;;5.68;0.30;;;13.10;99.90;;;;;;4972528;28;20118;-88
2023/05/16 08:25:39;;;;;;;5.05;0.57;;;13.30;99.90;;;;;;4963952;28;20027;-88
2023/05/16 08:28:04;;;;;;;3.42;0.22;;;13.50;99.90;;;;;;4974491;28;20129;-88
2023/05/16 08:30:30;;;;;;;1.42;0.20;;;13.70;99.90;;;;;;4975555;28;20536;-88
2023/05/16 08:32:55;;;;;;;3.65;0.20;;;13.90;99.90;;;;;;4975717;28;20031;-88
2023/05/16 08:35:21;;;;;;;3.22;0.70;;;13.90;99.90;;;;;;4975512;28;20026;-89
2023/05/16 08:37:46;;;;;;;4.28;0.50;;;13.90;99.90;;;;;;4978047;28;20033;-87
2023/05/16 08:40:13;;;;;;;4.90;0.30;;;14.00;99.90;;;;;;4977747;28;20026;-88
2023/05/16 08:42:38;;;;;;;4.38;0.20;;;14.00;99.90;;;;;;4968416;28;20027;-87
2023/05/16 08:45:05;;;;;;;3.45;0.40;;;13.90;99.90;;;;;;4989820;28;20073;-87
2023/05/16 08:47:31;;;;;;;3.15;0.28;;;13.80;99.90;;;;;;4959616;28;20050;-88
2023/05/16 08:49:59;;;;;;;3.28;0.30;;;13.60;99.90;;;;;;4971335;28;20133;-91
2023/05/16 08:52:30;;;;;;;3.78;0.40;;;13.40;99.90;;;;;;4980595;28;20471;-91
2023/05/16 08:55:00;;;;;;;7.47;0.63;;;13.20;99.90;;;;;;4977790;28;20113;-89
2023/05/16 08:57:26;;;;;;;2.72;0.32;;;13.10;99.90;;;;;;4974299;28;20085;-89
2023/05/16 08:59:53;;;;;;;4.30;0.30;;;13.00;99.90;;;;;;4983648;28;20372;-89
2023/05/16 09:02:21;;;;;;;4.85;0.57;;;12.90;99.90;;;;;;4994477;28;20089;-89
2023/05/16 09:04:48;;;;;;;7.32;0.30;;;12.80;99.90;;;;;;4978184;28;20030;-89
2023/05/16 09:07:13;;;;;;;3.55;0.30;;;13.00;99.90;;;;;;4969515;28;20028;-89
2023/05/16 09:09:40;;;;;;;1.98;0.20;;;13.10;99.90;;;;;;4978328;28;20039;-89
2023/05/16 09:12:06;;;;;;;1.42;0.10;;;13.20;99.90;;;;;;4978356;28;20046;-89
2023/05/16 09:14:32;;;;;;;2.13;0.20;;;13.20;99.90;;;;;;4980571;28;20121;-89
2023/05/16 09:17:08;;;;;;;5.63;0.17;;;13.00;99.90;;;;;;4979215;28;20066;-89
2023/05/16 09:19:41;;;;;;;3.40;0.25;;;12.80;99.90;;;;;;4970061;28;20031;-89
2023/05/16 09:22:14;;;;;;;1.83;0.20;;;12.80;99.90;;;;;;4961267;28;20058;-89
2023/05/16 09:24:43;;;;;;;4.20;0.28;;;12.60;99.90;;;;;;4961973;28;20027;-89
2023/05/16 09:27:11;;;;;;;3.25;0.20;;;12.60;99.90;;;;;;4975245;28;20036;-88
2023/05/16 09:29:38;;;;;;;2.65;0.10;;;12.50;99.90;;;;;;4996247;28;20038;-89
2023/05/16 09:32:11;;;;;;;5.40;0.40;;;12.50;99.90;;;;;;4978743;28;20030;-89
2023/05/16 09:34:42;;;;;;;6.50;1.40;;;12.60;99.90;;;;;;4977152;28;20039;-89
2023/05/16 09:37:10;;;;;;;5.35;0.80;;;12.90;99.90;;;;;;4977709;28;20549;-89
2023/05/16 09:39:35;;;;;;;3.17;0.30;;;13.10;99.90;;;;;;4990294;28;20033;-88
2023/05/16 09:42:01;;;;;;;4.50;0.47;;;13.30;99.90;;;;;;4973768;28;20121;-88
2023/05/16 09:44:26;;;;;;;3.78;0.30;;;13.50;99.90;;;;;;4978295;28;20457;-89
2023/05/16 09:46:55;;;;;;;4.57;0.30;;;13.80;99.90;;;;;;4994357;28;20034;-89
2023/05/16 09:49:21;;;;;;;6.85;0.40;;;14.00;99.90;;;;;;4978029;28;20138;-88
2023/05/16 09:51:47;;;;;;;6.13;0.95;;;14.20;99.90;;;;;;4978714;28;20426;-89
2023/05/16 09:54:12;;;;;;;3.97;0.38;;;14.50;99.90;;;;;;4974641;28;20027;-89
2023/05/16 09:56:49;;;;;;;2.33;0.30;;;14.70;99.90;;;;;;4975315;28;20032;-89
2023/05/16 09:59:15;;;;;;;5.30;0.40;;;14.80;99.90;;;;;;4975276;28;20034;-89
2023/05/16 10:01:42;;;;;;;4.53;0.30;;;14.70;99.90;;;;;;4975766;28;20027;-89
2023/05/16 10:04:12;;;;;;;6.63;0.30;;;14.50;99.90;;;;;;4992457;28;20038;-89
2023/05/16 10:06:41;;;;;;;4.72;0.40;;;14.30;99.90;;;;;;4983711;28;20058;-89
2023/05/16 10:09:11;;;;;;;6.50;0.30;;;14.20;99.90;;;;;;4970227;28;20061;-89
2023/05/16 10:11:41;;;;;;;5.18;0.40;;;14.30;99.90;;;;;;4976516;28;20027;-89
2023/05/16 10:14:08;;;;;;;5.82;0.30;;;14.50;99.90;;;;;;4982320;28;20025;-89
2023/05/16 10:16:34;;;;;;;5.22;0.30;;;14.70;99.90;;;;;;4969674;28;20088;-89
2023/05/16 10:19:02;;;;;;;4.25;0.20;;;14.90;99.90;;;;;;4979893;28;20023;-89
2023/05/16 10:21:28;;;;;;;2.50;0.17;;;15.10;99.80;;;;;;4979132;28;20059;-88
2023/05/16 10:23:57;;;;;;;3.58;0.20;;;15.40;99.40;;;;;;4980282;28;20050;-89
2023/05/16 10:26:24;;;;;;;5.65;0.30;;;15.70;99.00;;;;;;4972035;28;20396;-90
2023/05/16 10:28:50;;;;;;;4.10;0.30;;;15.80;97.00;;;;;;4966626;28;20034;-89
2023/05/16 10:31:17;;;;;;;6.15;0.40;;;15.70;96.10;;;;;;4975725;28;20029;-89
2023/05/16 10:33:43;;;;;;;4.30;0.30;;;15.70;97.10;;;;;;4968621;28;20058;-89
2023/05/16 10:36:10;;;;;;;6.45;0.20;;;15.80;96.50;;;;;;4973021;28;20164;-90
2023/05/16 10:38:36;;;;;;;3.25;0.30;;;15.80;95.80;;;;;;4967732;28;20379;-89
2023/05/16 10:41:03;;;;;;;3.53;0.22;;;15.70;94.00;;;;;;4960166;28;20081;-89
2023/05/16 10:43:29;;;;;;;2.33;0.20;;;15.80;93.90;;;;;;4971376;28;20110;-89
2023/05/16 10:46:08;;;;;;;4.00;0.30;;;15.90;93.80;;;;;;4972461;28;20591;-89
2023/05/16 10:48:36;;;;;;;5.63;0.40;;;16.00;92.60;;;;;;4966114;28;20038;-89
2023/05/16 10:51:04;;;;;;;2.80;0.20;;;16.10;92.90;;;;;;4961119;28;20117;-89
2023/05/16 10:53:34;;;;;;;5.20;0.30;;;16.10;91.60;;;;;;4977419;23;20061;-88
2023/05/16 10:56:00;;;;;;;1.58;0.20;;;16.20;91.50;;;;;;4962952;28;21169;-88
2023/05/16 10:58:41;;;;;;;3.88;0.40;;;16.20;89.50;;;;;;4971102;28;20033;-89
2023/05/16 11:01:28;;;;;;;5.75;0.22;;;16.10;86.50;;;;;;4973853;28;20024;-88
2023/05/16 11:03:59;;;;;;;2.50;0.20;;;15.90;86.90;;;;;;4961286;28;20019;-88
2023/05/16 11:06:26;;;;;;;2.88;0.20;;;16.00;86.30;;;;;;4974295;28;20076;-88
2023/05/16 11:09:10;;;;;;;2.45;0.20;;;16.00;85.80;;;;;;4976103;28;20084;-89
2023/05/16 11:11:50;;;;;;;6.55;0.40;;;16.00;86.10;;;;;;4975383;28;20035;-89
2023/05/16 11:14:36;;;;;;;4.43;0.30;;;16.10;86.40;;;;;;4975478;28;20031;-89
2023/05/16 11:17:11;;;;;;;5.88;0.30;;;16.00;85.30;;;;;;4974192;28;20483;-89
2023/05/16 11:19:44;;;;;;;3.70;0.32;;;15.90;85.40;;;;;;4969441;28;20058;-89
2023/05/16 11:22:23;;;;;;;2.72;0.20;;;16.00;83.90;;;;;;4967466;28;20168;-88
2023/05/16 11:25:03;;;;;;;3.28;0.40;;;16.00;84.30;;;;;;4960141;28;20059;-88
2023/05/16 11:27:31;;;;;;;3.63;0.63;;;16.20;83.80;;;;;;4975520;28;20065;-88
2023/05/16 11:30:05;;;;;;;4.88;0.30;;;16.20;83.70;;;;;;4963927;28;20043;-88
2023/05/16 11:32:36;;;;;;;5.05;0.30;;;16.20;83.20;;;;;;4960503;28;20477;-89
2023/05/16 11:35:03;;;;;;;3.72;0.50;;;16.20;84.10;;;;;;4968404;28;20027;-88
2023/05/16 11:37:28;;;;;;;4.80;0.40;;;16.20;84.80;;;;;;4959953;28;20764;-88
2023/05/16 11:40:01;;;;;;;1.70;0.20;;;16.30;84.10;;;;;;4965125;28;20031;-88
2023/05/16 11:42:33;;;;;;;3.63;0.30;;;16.30;83.70;;;;;;4977056;28;20364;-89
2023/05/16 11:45:15;;;;;;;4.53;0.28;;;16.30;81.60;;;;;;4965563;28;20030;-89
2023/05/16 11:47:43;;;;;;;;;;;16.10;81.00;;;;;;4975715;28;20121;-88
2023/05/16 11:50:13;;;;;;;3.05;0.28;;;16.00;82.10;;;;;;4974027;28;20362;-89
2023/05/16 11:52:43;;;;;;;4.88;0.40;;;15.90;82.60;;;;;;4973149;28;20165;-89
2023/05/16 11:55:10;;;;;;;3.05;0.30;;;15.80;82.00;;;;;;4994729;28;20093;-89
2023/05/16 11:57:37;;;;;;;3.50;0.22;;;15.80;82.60;;;;;;4995367;28;20057;-90
2023/05/16 12:00:18;;;;;;;3.55;0.20;;;16.00;83.20;;;;;;4975698;28;20027;-88
2023/05/16 12:02:46;;;;;;;2.40;0.30;;;16.10;83.90;;;;;;4994555;28;20109;-89
2023/05/16 12:05:12;;;;;;;2.75;0.40;;;16.20;84.10;;;;;;4995285;28;20526;-89
2023/05/16 12:07:38;;;;;;;5.18;0.30;;;16.30;84.00;;;;;;4995984;28;20033;-88
2023/05/16 12:10:06;;;;;;;3.10;0.20;;;16.20;82.50;;;;;;4978574;28;20120;-88
2023/05/16 12:12:32;;;;;;;4.53;0.30;;;16.20;82.60;;;;;;4995471;28;20019;-89
2023/05/16 12:14:58;;;;;;;3.90;0.40;;;16.10;82.30;;;;;;4978482;28;20084;-89
2023/05/16 12:17:24;;;;;;;5.13;0.50;;;16.00;81.80;;;;;;4969765;28;20030;-89
2023/05/16 12:19:50;;;;;;;4.28;0.30;;;15.90;82.40;;;;;;4969869;28;20026;-89
2023/05/16 12:22:19;;;;;;;3.00;0.30;;;15.90;83.00;;;;;;5000968;28;20053;-89
2023/05/16 12:24:45;;;;;;;2.30;0.20;;;15.90;83.40;;;;;;5019606;28;20025;-89
2023/05/16 12:27:11;;;;;;;2.33;0.20;;;16.00;84.20;;;;;;4994448;28;20022;-89
2023/05/16 12:29:37;;;;;;;4.22;0.40;;;16.10;84.70;;;;;;5001565;28;20033;-89
2023/05/16 12:32:03;;;;;;;6.65;0.40;;;16.20;84.10;;;;;;4980314;28;20023;-88
2023/05/16 12:34:29;;;;;;;2.83;0.30;;;16.20;84.00;;;;;;5002120;28;20517;-89
2023/05/16 12:36:55;;;;;;;5.20;0.30;;;16.20;83.30;;;;;;4988537;28;20026;-89
2023/05/16 12:39:21;;;;;;;2.10;0.20;;;16.20;83.40;;;;;;4986601;28;20410;-89
2023/05/16 12:41:47;;;;;;;3.25;0.65;;;16.20;83.00;;;;;;4977850;28;20113;-89
2023/05/16 12:44:16;;;;;;;3.33;0.20;;;16.10;82.10;;;;;;4981189;28;20120;-89
2023/05/16 12:46:43;;;;;;;4.03;0.40;;;16.00;82.30;;;;;;4993101;28;20066;-89
2023/05/16 12:49:09;;;;;;;4.50;0.30;;;15.80;82.20;;;;;;4978902;28;20038;-88